createdAt,value
2023-05-23T00:00:53.880Z,61.27
2023-05-23T00:02:45.245Z,61.38
2023-05-23T00:04:36.895Z,61.86
2023-05-23T00:06:28.718Z,61.97
2023-05-23T00:08:20.465Z,61.91
2023-05-23T00:10:13.332Z,62.19
2023-05-23T00:12:05.385Z,62.56
2023-05-23T00:14:01.318Z,62.52
2023-05-23T00:15:53.098Z,62.59
2023-05-23T00:17:45.034Z,62.57
2023-05-23T00:19:36.964Z,62.99
2023-05-23T00:21:30.751Z,63.02
2023-05-23T00:23:22.701Z,62.69
2023-05-23T00:25:14.334Z,63.07
2023-05-23T00:27:06.024Z,63.58
2023-05-23T00:28:58.029Z,63.71
2023-05-23T00:30:49.881Z,63.58
2023-05-23T00:32:41.601Z,63.69
2023-05-23T00:34:33.198Z,63.68
2023-05-23T00:36:24.889Z,63.73
2023-05-23T00:38:17.591Z,63.48
2023-05-23T00:40:10.164Z,64.11
2023-05-23T00:42:04.751Z,64.54
2023-05-23T00:43:59.987Z,64.17
2023-05-23T00:45:51.798Z,64.09
2023-05-23T00:47:44.802Z,64.59
2023-05-23T00:49:36.572Z,64.60
2023-05-23T00:51:28.588Z,64.58
2023-05-23T00:53:23.423Z,64.61
2023-05-23T00:55:15.186Z,64.74
2023-05-23T00:57:07.233Z,64.84
2023-05-23T00:59:00.946Z,64.84
2023-05-23T01:00:54.548Z,65.08
2023-05-23T01:02:47.795Z,65.01
2023-05-23T01:04:39.738Z,65.53
2023-05-23T01:06:33.563Z,65.73
2023-05-23T01:08:25.132Z,65.63
2023-05-23T01:10:19.414Z,65.89
2023-05-23T01:12:20.048Z,66.13
2023-05-23T01:14:15.285Z,66.20
2023-05-23T01:16:33.239Z,66.19
2023-05-23T01:18:30.639Z,66.23
2023-05-23T01:20:23.927Z,66.28
2023-05-23T01:22:23.996Z,66.23
2023-05-23T01:24:37.832Z,66.23
2023-05-23T01:26:58.124Z,66.53
2023-05-23T01:28:53.436Z,66.80
2023-05-23T01:30:46.171Z,66.81
2023-05-23T01:32:38.018Z,66.84
2023-05-23T01:34:30.577Z,66.92
2023-05-23T01:36:22.543Z,66.56
2023-05-23T01:38:14.184Z,66.24
2023-05-23T01:40:06.421Z,66.43
2023-05-23T01:41:57.788Z,66.50
2023-05-23T01:43:49.665Z,66.58
2023-05-23T01:45:41.841Z,66.73
2023-05-23T01:47:34.357Z,66.88
2023-05-23T01:49:26.869Z,66.63
2023-05-23T01:51:18.596Z,66.86
2023-05-23T01:53:10.442Z,66.55
2023-05-23T01:55:03.489Z,66.53
2023-05-23T01:56:57.461Z,66.43
2023-05-23T01:58:49.191Z,66.72
2023-05-23T02:00:41.177Z,66.84
2023-05-23T02:02:35.808Z,67.15
2023-05-23T02:04:28.395Z,67.35
2023-05-23T02:06:19.769Z,67.55
2023-05-23T02:08:11.792Z,67.71
2023-05-23T02:10:04.642Z,67.74
2023-05-23T02:11:55.935Z,67.93
2023-05-23T02:13:47.463Z,67.80
2023-05-23T02:15:38.909Z,67.55
2023-05-23T02:17:30.810Z,67.68
2023-05-23T02:19:22.446Z,67.56
2023-05-23T02:21:14.211Z,67.83
2023-05-23T02:23:06.332Z,68.11
2023-05-23T02:24:58.121Z,68.17
2023-05-23T02:26:49.940Z,68.29
2023-05-23T02:28:41.761Z,68.34
2023-05-23T02:30:33.261Z,68.68
2023-05-23T02:32:24.800Z,68.70
2023-05-23T02:34:16.634Z,68.77
2023-05-23T02:36:08.309Z,68.42
2023-05-23T02:38:00.545Z,67.96
2023-05-23T02:39:52.069Z,68.07
2023-05-23T02:41:43.905Z,68.05
2023-05-23T02:43:35.627Z,68.52
2023-05-23T02:45:27.499Z,68.62
2023-05-23T02:47:19.265Z,68.56
2023-05-23T02:49:11.164Z,68.37
2023-05-23T02:51:02.608Z,68.11
2023-05-23T02:52:54.383Z,68.35
2023-05-23T02:54:45.750Z,68.33
2023-05-23T02:56:37.100Z,68.09
2023-05-23T02:58:28.576Z,68.45
2023-05-23T03:00:20.306Z,68.61
2023-05-23T03:02:12.354Z,68.62
2023-05-23T03:04:04.443Z,69.00
2023-05-23T03:05:56.549Z,69.20
2023-05-23T03:07:48.102Z,69.23
2023-05-23T03:09:39.995Z,69.39
2023-05-23T03:11:31.845Z,69.60
2023-05-23T03:13:24.180Z,70.02
2023-05-23T03:15:16.232Z,70.07
2023-05-23T03:17:07.944Z,70.10
2023-05-23T03:19:00.870Z,70.15
2023-05-23T03:20:52.566Z,70.06
2023-05-23T03:22:45.800Z,69.97
2023-05-23T03:24:37.533Z,69.58
2023-05-23T03:26:28.974Z,69.35
2023-05-23T03:28:20.739Z,69.33
2023-05-23T03:30:13.120Z,69.00
2023-05-23T03:32:05.285Z,69.17
2023-05-23T03:33:56.942Z,69.33
2023-05-23T03:35:48.722Z,69.37
2023-05-23T03:37:40.593Z,69.67
2023-05-23T03:39:32.247Z,69.74
2023-05-23T03:41:23.805Z,69.40
2023-05-23T03:43:15.658Z,69.31
2023-05-23T03:45:07.736Z,69.52
2023-05-23T03:46:59.694Z,69.64
2023-05-23T03:48:51.598Z,69.72
2023-05-23T03:50:43.614Z,69.65
2023-05-23T03:52:34.959Z,69.72
2023-05-23T03:54:26.796Z,69.41
2023-05-23T03:56:18.212Z,69.25
2023-05-23T03:58:09.639Z,69.23
2023-05-23T04:00:01.453Z,69.24
2023-05-23T04:01:53.227Z,68.42
2023-05-23T04:03:45.259Z,68.26
2023-05-23T04:05:37.074Z,68.21
2023-05-23T04:07:28.741Z,68.15
2023-05-23T04:09:20.621Z,68.25
2023-05-23T04:11:12.522Z,68.65
2023-05-23T04:13:04.665Z,68.39
2023-05-23T04:14:56.431Z,67.77
2023-05-23T04:16:48.656Z,67.23
2023-05-23T04:18:40.891Z,67.24
2023-05-23T04:20:32.441Z,67.02
2023-05-23T04:22:24.165Z,66.75
2023-05-23T04:24:16.029Z,66.30
2023-05-23T04:26:07.701Z,66.10
2023-05-23T04:27:59.966Z,65.95
2023-05-23T04:29:52.727Z,65.53
2023-05-23T04:31:46.356Z,65.23
2023-05-23T04:33:38.412Z,64.87
2023-05-23T04:35:30.265Z,64.72
2023-05-23T04:37:26.499Z,64.44
2023-05-23T04:39:18.188Z,64.17
2023-05-23T04:41:12.629Z,63.70
2023-05-23T04:43:04.270Z,63.32
2023-05-23T04:44:59.194Z,63.10
2023-05-23T04:46:50.959Z,62.81
2023-05-23T04:48:42.998Z,62.39
2023-05-23T04:50:36.041Z,62.16
2023-05-23T04:52:28.516Z,61.89
2023-05-23T04:54:20.329Z,61.02
2023-05-23T04:56:12.512Z,60.23
2023-05-23T04:58:04.237Z,60.13
2023-05-23T04:59:57.252Z,59.35
2023-05-23T05:01:48.819Z,58.65
2023-05-23T05:03:40.234Z,58.23
2023-05-23T05:05:31.982Z,57.37
2023-05-23T05:07:24.055Z,57.62
2023-05-23T05:09:15.541Z,56.47
2023-05-23T05:11:07.053Z,56.91
2023-05-23T05:12:58.724Z,56.23
2023-05-23T05:14:50.455Z,55.77
2023-05-23T05:16:42.917Z,55.59
2023-05-23T05:18:35.007Z,54.67
2023-05-23T05:20:26.042Z,54.84
2023-05-23T05:22:17.142Z,55.20
2023-05-23T05:24:09.924Z,54.55
2023-05-23T05:26:01.260Z,54.43
2023-05-23T05:27:52.864Z,54.54
2023-05-23T05:29:44.974Z,53.66
2023-05-23T05:31:37.723Z,54.11
2023-05-23T05:33:29.757Z,53.97
2023-05-23T05:35:21.160Z,54.61
2023-05-23T05:37:14.177Z,53.02
2023-05-23T05:39:07.061Z,54.19
2023-05-23T05:40:58.385Z,52.81
2023-05-23T05:42:50.073Z,53.77
2023-05-23T05:44:42.015Z,52.60
2023-05-23T05:46:33.662Z,53.16
2023-05-23T05:48:25.472Z,52.00
2023-05-23T05:50:17.540Z,51.66
2023-05-23T05:52:09.558Z,51.47
2023-05-23T05:54:01.479Z,51.36
2023-05-23T05:55:54.501Z,50.89
2023-05-23T05:57:46.255Z,51.03
2023-05-23T05:59:37.717Z,51.72
2023-05-23T06:01:29.327Z,50.23
2023-05-23T06:03:20.813Z,49.30
2023-05-23T06:05:12.632Z,48.87
2023-05-23T06:07:04.773Z,48.70
2023-05-23T06:08:56.555Z,48.65
2023-05-23T06:10:48.429Z,48.63
2023-05-23T06:12:40.428Z,48.38
2023-05-23T06:14:32.069Z,48.78
2023-05-23T06:16:24.396Z,48.13
2023-05-23T06:18:16.804Z,48.51
2023-05-23T06:20:08.768Z,48.21
2023-05-23T06:22:00.548Z,47.63
2023-05-23T06:23:52.756Z,47.90
2023-05-23T06:25:44.088Z,47.74
2023-05-23T06:27:36.050Z,47.95
2023-05-23T06:29:27.404Z,47.82
2023-05-23T06:31:19.040Z,47.72
2023-05-23T06:33:11.860Z,47.61
2023-05-23T06:35:04.008Z,47.95
2023-05-23T06:36:55.832Z,47.32
2023-05-23T06:38:47.645Z,47.71
2023-05-23T06:40:39.561Z,47.52
2023-05-23T06:42:31.553Z,47.40
2023-05-23T06:44:23.071Z,48.27
2023-05-23T06:46:14.326Z,48.42
2023-05-23T06:48:06.114Z,46.97
2023-05-23T06:49:57.840Z,47.66
2023-05-23T06:51:49.822Z,48.34
2023-05-23T06:53:41.316Z,47.68
2023-05-23T06:55:34.087Z,48.01
2023-05-23T06:57:25.626Z,48.21
2023-05-23T06:59:17.240Z,46.89
2023-05-23T07:01:10.783Z,46.21
2023-05-23T07:03:03.880Z,46.47
2023-05-23T07:04:55.517Z,46.43
2023-05-23T07:06:47.539Z,46.37
2023-05-23T07:08:39.182Z,45.56
2023-05-23T07:10:31.354Z,46.01
2023-05-23T07:12:23.266Z,45.62
2023-05-23T07:14:15.908Z,42.95
2023-05-23T07:16:07.454Z,43.37
2023-05-23T07:17:59.153Z,43.20
2023-05-23T07:19:50.896Z,42.70
2023-05-23T07:21:42.745Z,41.83
2023-05-23T07:23:34.692Z,41.99
2023-05-23T07:25:27.099Z,42.51
2023-05-23T07:27:18.721Z,41.46
2023-05-23T07:29:10.508Z,42.23
2023-05-23T07:31:02.387Z,42.31
2023-05-23T07:32:53.927Z,42.41
2023-05-23T07:34:45.760Z,42.28
2023-05-23T07:36:37.950Z,42.47
2023-05-23T07:38:29.456Z,42.55
2023-05-23T07:40:22.360Z,43.14
2023-05-23T07:42:14.241Z,42.81
2023-05-23T07:44:07.260Z,42.86
2023-05-23T07:45:58.844Z,43.05
2023-05-23T07:47:50.570Z,42.22
2023-05-23T07:49:42.273Z,42.60
2023-05-23T07:51:34.654Z,42.58
2023-05-23T07:53:26.882Z,43.33
2023-05-23T07:55:18.408Z,43.58
2023-05-23T07:57:10.417Z,43.83
2023-05-23T07:59:02.406Z,44.04
2023-05-23T08:00:54.153Z,43.51
2023-05-23T08:02:45.912Z,44.53
2023-05-23T08:04:38.029Z,44.66
2023-05-23T08:06:29.677Z,44.60
2023-05-23T08:08:21.584Z,44.61
2023-05-23T08:10:13.128Z,43.63
2023-05-23T08:12:05.015Z,44.69
2023-05-23T08:13:57.422Z,45.72
2023-05-23T08:15:50.652Z,44.94
2023-05-23T08:17:42.781Z,45.15
2023-05-23T08:19:34.641Z,45.66
2023-05-23T08:21:26.313Z,45.23
2023-05-23T08:23:18.241Z,45.76
2023-05-23T08:25:10.086Z,46.57
2023-05-23T08:27:02.077Z,44.80
2023-05-23T08:28:53.994Z,45.83
2023-05-23T08:30:45.668Z,45.50
2023-05-23T08:32:37.065Z,46.14
2023-05-23T08:34:28.953Z,45.40
2023-05-23T08:36:20.410Z,46.36
2023-05-23T08:38:12.236Z,45.27
2023-05-23T08:40:04.690Z,44.29
2023-05-23T08:41:56.480Z,44.07
2023-05-23T08:43:48.386Z,43.71
2023-05-23T08:45:41.732Z,45.17
2023-05-23T08:47:37.953Z,44.01
2023-05-23T08:49:29.718Z,44.71
2023-05-23T08:51:23.623Z,44.69
2023-05-23T08:53:20.365Z,44.99
2023-05-23T08:55:12.865Z,46.90
2023-05-23T08:57:04.979Z,46.43
2023-05-23T08:58:58.066Z,47.71
2023-05-23T09:00:50.197Z,47.64
2023-05-23T09:02:43.664Z,49.29
2023-05-23T09:04:35.570Z,48.85
2023-05-23T09:06:27.386Z,49.69
2023-05-23T09:08:19.303Z,48.18
2023-05-23T09:10:11.310Z,47.94
2023-05-23T09:12:03.539Z,48.53
2023-05-23T09:13:56.306Z,48.33
2023-05-23T09:16:00.283Z,48.91
2023-05-23T09:17:52.234Z,50.49
2023-05-23T09:19:43.965Z,50.80
2023-05-23T09:21:35.954Z,51.07
2023-05-23T09:23:33.014Z,52.23
2023-05-23T09:25:24.397Z,52.49
2023-05-23T09:27:15.981Z,53.39
2023-05-23T09:29:08.005Z,53.64
2023-05-23T09:31:00.748Z,53.58
2023-05-23T09:33:02.907Z,54.11
2023-05-23T09:35:00.885Z,53.79
2023-05-23T09:36:55.362Z,53.67
2023-05-23T09:38:49.197Z,54.10
2023-05-23T09:40:45.381Z,54.90
2023-05-23T09:42:44.209Z,55.17
2023-05-23T09:44:41.838Z,55.64
2023-05-23T09:46:35.925Z,56.15
2023-05-23T09:48:33.639Z,54.86
2023-05-23T09:50:32.176Z,54.54
2023-05-23T09:52:24.098Z,54.85
2023-05-23T09:54:15.961Z,54.72
2023-05-23T09:56:11.634Z,54.66
2023-05-23T09:58:04.061Z,53.24
2023-05-23T09:59:59.237Z,53.83
2023-05-23T10:01:53.339Z,53.77
2023-05-23T10:03:48.971Z,51.89
2023-05-23T10:05:50.156Z,52.37
2023-05-23T10:07:42.020Z,52.68
2023-05-23T10:09:36.596Z,53.77
2023-05-23T10:11:34.378Z,52.86
2023-05-23T10:13:29.515Z,52.98
2023-05-23T10:15:23.928Z,53.16
2023-05-23T10:17:20.156Z,51.92
2023-05-23T10:19:47.214Z,52.52
2023-05-23T10:21:46.722Z,52.93
2023-05-23T10:23:38.684Z,53.10
2023-05-23T10:25:30.534Z,52.81
2023-05-23T10:27:22.761Z,53.03
2023-05-23T10:29:14.431Z,54.01
2023-05-23T10:31:06.342Z,53.96
2023-05-23T10:32:58.454Z,52.77
2023-05-23T10:35:04.570Z,53.32
2023-05-23T10:37:01.101Z,52.62
2023-05-23T10:39:19.494Z,52.78
2023-05-23T10:41:19.081Z,52.84
2023-05-23T10:43:19.315Z,52.09
2023-05-23T10:45:23.040Z,52.08
2023-05-23T10:47:26.782Z,51.83
2023-05-23T10:49:19.049Z,51.78
2023-05-23T10:51:12.728Z,52.47
2023-05-23T10:53:06.475Z,50.87
2023-05-23T10:54:58.625Z,51.65
2023-05-23T10:57:05.555Z,51.59
2023-05-23T10:58:58.591Z,51.97
2023-05-23T11:00:54.665Z,51.80
2023-05-23T11:03:01.019Z,51.51
2023-05-23T11:05:18.404Z,52.90
2023-05-23T11:07:30.315Z,53.09
2023-05-23T11:09:22.428Z,52.47
2023-05-23T11:11:14.177Z,51.63
2023-05-23T11:13:11.101Z,51.23
2023-05-23T11:15:02.755Z,51.07
2023-05-23T11:16:54.256Z,51.00
2023-05-23T11:18:46.524Z,51.11
2023-05-23T11:20:38.538Z,52.18
2023-05-23T11:22:30.871Z,50.38
2023-05-23T11:24:23.468Z,50.30
2023-05-23T11:26:35.291Z,49.80
2023-05-23T11:28:27.312Z,48.56
2023-05-23T11:30:19.394Z,47.82
2023-05-23T11:32:17.332Z,49.53
2023-05-23T11:34:09.326Z,46.09
2023-05-23T11:36:01.310Z,48.31
2023-05-23T11:37:52.949Z,47.28
2023-05-23T11:39:44.454Z,46.15
2023-05-23T11:41:35.917Z,44.22
2023-05-23T11:43:27.491Z,45.01
2023-05-23T11:45:25.989Z,43.70
2023-05-23T11:47:18.115Z,44.07
2023-05-23T11:49:12.782Z,41.48
2023-05-23T11:51:04.913Z,41.35
2023-05-23T11:52:56.405Z,42.70
2023-05-23T11:54:47.651Z,42.15
2023-05-23T11:56:40.930Z,43.69
2023-05-23T11:58:39.506Z,42.69
2023-05-23T12:00:31.714Z,43.82
2023-05-23T12:02:23.295Z,43.08
2023-05-23T12:04:15.831Z,43.65
2023-05-23T12:06:07.655Z,43.70
2023-05-23T12:07:59.907Z,43.94
2023-05-23T12:09:56.775Z,43.19
2023-05-23T12:11:49.141Z,43.79
2023-05-23T12:13:41.049Z,44.07
2023-05-23T12:15:32.439Z,44.13
2023-05-23T12:17:23.797Z,43.51
2023-05-23T12:19:17.714Z,44.31
2023-05-23T12:21:09.168Z,44.44
2023-05-23T12:23:04.949Z,44.91
2023-05-23T12:24:56.703Z,43.88
2023-05-23T12:26:56.125Z,43.91
2023-05-23T12:28:47.745Z,42.66
2023-05-23T12:30:43.628Z,41.42
2023-05-23T12:32:37.451Z,41.68
2023-05-23T12:34:29.702Z,41.62
2023-05-23T12:36:26.406Z,40.52
2023-05-23T12:38:18.478Z,39.16
2023-05-23T12:40:14.695Z,40.06
2023-05-23T12:42:09.972Z,41.28
2023-05-23T12:44:02.637Z,40.68
2023-05-23T12:45:54.264Z,39.26
2023-05-23T12:47:46.070Z,40.33
2023-05-23T12:49:38.212Z,41.34
2023-05-23T12:51:30.731Z,40.12
2023-05-23T12:53:24.940Z,40.89
2023-05-23T12:55:17.348Z,41.42
2023-05-23T12:57:09.052Z,40.73
2023-05-23T12:59:02.154Z,42.59
2023-05-23T13:00:54.114Z,41.08
2023-05-23T13:02:46.946Z,41.22
2023-05-23T13:04:38.571Z,40.82
2023-05-23T13:06:30.194Z,40.47
2023-05-23T13:08:22.506Z,40.36
2023-05-23T13:10:14.181Z,38.61
2023-05-23T13:12:06.188Z,38.17
2023-05-23T13:13:58.613Z,38.57
2023-05-23T13:15:51.218Z,39.17
2023-05-23T13:17:46.144Z,38.34
2023-05-23T13:19:42.756Z,39.23
2023-05-23T13:21:34.657Z,37.84
2023-05-23T13:23:26.527Z,37.77
2023-05-23T13:25:17.950Z,35.57
2023-05-23T13:27:09.611Z,37.19
2023-05-23T13:29:01.405Z,36.44
2023-05-23T13:30:53.602Z,35.51
2023-05-23T13:32:45.752Z,36.43
2023-05-23T13:34:38.231Z,35.98
2023-05-23T13:36:30.908Z,36.58
2023-05-23T13:38:26.078Z,36.98
2023-05-23T13:40:41.849Z,37.93
2023-05-23T13:42:35.223Z,38.33
2023-05-23T13:44:28.058Z,38.61
2023-05-23T13:46:41.136Z,38.75
2023-05-23T13:48:33.222Z,39.06
2023-05-23T13:50:25.499Z,38.81
2023-05-23T13:52:17.352Z,38.28
2023-05-23T13:54:09.184Z,38.56
2023-05-23T13:56:00.880Z,38.89
2023-05-23T13:57:52.756Z,39.59
2023-05-23T13:59:44.382Z,40.01
2023-05-23T14:01:35.966Z,40.19
2023-05-23T14:03:27.565Z,41.00
2023-05-23T14:05:19.610Z,39.79
2023-05-23T14:07:11.612Z,39.69
2023-05-23T14:09:03.502Z,39.89
2023-05-23T14:10:55.592Z,41.73
2023-05-23T14:12:47.892Z,41.65
2023-05-23T14:14:39.424Z,42.40
2023-05-23T14:16:31.695Z,43.05
2023-05-23T14:18:23.315Z,42.63
2023-05-23T14:20:14.951Z,44.79
2023-05-23T14:22:06.540Z,44.76
2023-05-23T14:23:58.297Z,44.74
2023-05-23T14:25:50.080Z,45.31
2023-05-23T14:27:41.668Z,44.95
2023-05-23T14:29:33.461Z,44.75
2023-05-23T14:31:25.844Z,45.93
2023-05-23T14:33:17.633Z,45.72
2023-05-23T14:35:10.840Z,46.03
2023-05-23T14:37:02.418Z,45.74
2023-05-23T14:38:53.792Z,46.88
2023-05-23T14:40:45.544Z,48.54
2023-05-23T14:42:36.961Z,47.51
2023-05-23T14:44:29.121Z,49.10
2023-05-23T14:46:21.212Z,48.90
2023-05-23T14:48:12.873Z,49.71
2023-05-23T14:50:05.061Z,51.50
2023-05-23T14:51:56.680Z,53.03
2023-05-23T14:53:48.368Z,52.44
2023-05-23T14:55:40.055Z,52.39
2023-05-23T14:57:31.797Z,51.89
2023-05-23T14:59:23.622Z,51.88
2023-05-23T15:01:14.852Z,52.25
2023-05-23T15:03:07.897Z,51.73
2023-05-23T15:04:59.789Z,52.82
2023-05-23T15:06:51.675Z,53.29
2023-05-23T15:08:43.209Z,51.83
2023-05-23T15:10:34.951Z,51.58
2023-05-23T15:12:26.520Z,51.42
2023-05-23T15:14:17.951Z,51.33
2023-05-23T15:16:09.262Z,51.38
2023-05-23T15:18:06.711Z,53.30
2023-05-23T15:19:58.358Z,52.06
2023-05-23T15:21:51.800Z,52.15
2023-05-23T15:23:43.772Z,52.51
2023-05-23T15:25:49.041Z,52.98
2023-05-23T15:27:41.835Z,52.72
2023-05-23T15:29:35.781Z,53.45
2023-05-23T15:31:27.291Z,53.40
2023-05-23T15:33:18.908Z,53.67
2023-05-23T15:35:10.597Z,52.77
2023-05-23T15:37:02.379Z,53.38
2023-05-23T15:38:54.426Z,53.38
2023-05-23T15:40:49.040Z,53.86
2023-05-23T15:42:40.714Z,53.84
2023-05-23T15:44:32.488Z,53.92
2023-05-23T15:46:24.352Z,54.58
2023-05-23T15:48:15.990Z,54.92
2023-05-23T15:50:07.842Z,55.05
2023-05-23T15:51:59.301Z,54.34
2023-05-23T15:55:46.019Z,55.43
2023-05-23T15:57:37.855Z,56.12
2023-05-23T15:59:31.506Z,56.33
2023-05-23T16:01:23.078Z,55.06
2023-05-23T16:03:14.584Z,55.11
2023-05-23T16:05:06.895Z,54.76
2023-05-23T16:06:58.529Z,55.42
2023-05-23T16:08:50.324Z,56.55
2023-05-23T16:10:42.117Z,56.46
2023-05-23T16:12:33.803Z,56.80
2023-05-23T16:14:25.757Z,57.74
2023-05-23T16:16:17.295Z,58.33
2023-05-23T16:18:09.379Z,58.39
2023-05-23T16:20:04.340Z,59.09
2023-05-23T16:21:56.680Z,59.15
2023-05-23T16:23:49.059Z,58.85
2023-05-23T16:25:41.359Z,59.22
2023-05-23T16:27:33.381Z,58.82
2023-05-23T16:29:25.384Z,58.90
2023-05-23T16:31:17.720Z,59.75
2023-05-23T16:33:09.457Z,59.81
2023-05-23T16:35:01.569Z,60.31
2023-05-23T16:36:53.328Z,60.59
2023-05-23T16:38:44.731Z,61.11
2023-05-23T16:40:36.233Z,60.89
2023-05-23T16:42:28.175Z,60.96
2023-05-23T16:44:20.956Z,60.39
2023-05-23T16:46:12.701Z,60.42
2023-05-23T16:48:04.569Z,60.04
2023-05-23T16:49:56.987Z,59.89
2023-05-23T16:51:48.999Z,59.98
2023-05-23T16:53:40.758Z,60.21
2023-05-23T16:55:32.645Z,60.50
2023-05-23T16:57:24.824Z,60.71
2023-05-23T16:59:16.373Z,61.02
2023-05-23T17:01:08.623Z,61.38
2023-05-23T17:03:00.179Z,61.73
2023-05-23T17:04:52.004Z,61.88
2023-05-23T17:06:43.737Z,62.11
2023-05-23T17:08:35.648Z,62.72
2023-05-23T17:10:27.551Z,62.97
2023-05-23T17:12:19.687Z,62.76
2023-05-23T17:14:11.933Z,63.43
2023-05-23T17:16:04.480Z,63.66
2023-05-23T17:17:56.449Z,64.12
2023-05-23T17:19:48.795Z,64.62
2023-05-23T17:21:41.292Z,65.86
2023-05-23T17:23:33.334Z,66.70
2023-05-23T17:25:25.552Z,67.37
2023-05-23T17:27:17.139Z,67.73
2023-05-23T17:29:10.123Z,68.65
2023-05-23T17:31:02.098Z,68.84
2023-05-23T17:32:53.894Z,69.10
2023-05-23T17:34:46.823Z,68.95
2023-05-23T17:36:39.085Z,69.28
2023-05-23T17:38:30.828Z,69.34
2023-05-23T17:40:23.379Z,69.36
2023-05-23T17:42:16.927Z,69.68
2023-05-23T17:44:08.856Z,69.75
2023-05-23T17:46:01.313Z,70.15
2023-05-23T17:47:53.283Z,70.36
2023-05-23T17:49:46.087Z,70.48
2023-05-23T17:51:38.434Z,70.77
2023-05-23T17:53:30.553Z,70.50
2023-05-23T17:55:22.797Z,70.88
2023-05-23T17:57:16.188Z,70.84
2023-05-23T17:59:07.793Z,70.40
2023-05-23T18:01:00.030Z,70.48
2023-05-23T18:02:52.284Z,70.36
2023-05-23T18:04:44.542Z,70.59
2023-05-23T18:06:36.499Z,70.52
2023-05-23T18:08:28.549Z,70.70
2023-05-23T18:10:20.694Z,70.84
2023-05-23T18:12:13.352Z,70.96
2023-05-23T18:14:07.354Z,70.68
2023-05-23T18:15:59.012Z,70.80
2023-05-23T18:17:53.035Z,70.64
2023-05-23T18:19:49.532Z,70.83
2023-05-23T18:21:41.780Z,70.90
2023-05-23T18:23:33.736Z,71.15
2023-05-23T18:25:29.353Z,71.30
2023-05-23T18:27:21.046Z,71.82
2023-05-23T18:29:13.561Z,71.66
2023-05-23T18:31:05.798Z,72.23
2023-05-23T18:32:59.190Z,72.47
2023-05-23T18:34:51.081Z,72.31
2023-05-23T18:36:43.346Z,72.37
2023-05-23T18:38:36.012Z,72.53
2023-05-23T18:40:28.165Z,72.29
2023-05-23T18:42:20.297Z,72.13
2023-05-23T18:44:12.371Z,72.04
2023-05-23T18:46:04.343Z,71.76
2023-05-23T18:47:56.454Z,72.06
2023-05-23T18:49:49.876Z,71.57
2023-05-23T18:51:41.762Z,71.40
2023-05-23T18:53:35.351Z,71.41
2023-05-23T18:55:28.798Z,71.49
2023-05-23T18:57:22.770Z,71.40
2023-05-23T18:59:16.085Z,71.15
2023-05-23T19:01:08.565Z,71.47
2023-05-23T19:03:00.503Z,71.64
2023-05-23T19:04:52.772Z,71.75
2023-05-23T19:06:45.536Z,72.42
2023-05-23T19:08:37.600Z,72.35
2023-05-23T19:10:30.353Z,72.30
2023-05-23T19:12:22.608Z,72.25
2023-05-23T19:14:14.499Z,72.31
2023-05-23T19:16:07.503Z,72.40
2023-05-23T19:18:00.520Z,72.24
2023-05-23T19:19:52.486Z,72.58
2023-05-23T19:21:44.492Z,72.48
2023-05-23T19:23:36.335Z,72.47
2023-05-23T19:25:27.920Z,72.69
2023-05-23T19:27:20.793Z,72.88
2023-05-23T19:29:12.572Z,72.56
2023-05-23T19:31:04.287Z,72.96
2023-05-23T19:32:56.570Z,72.73
2023-05-23T19:34:48.973Z,72.96
2023-05-23T19:36:41.380Z,72.80
2023-05-23T19:38:32.712Z,72.93
2023-05-23T19:40:24.414Z,72.97
2023-05-23T19:42:16.361Z,73.18
2023-05-23T19:44:09.300Z,73.14
2023-05-23T19:46:01.576Z,73.35
2023-05-23T19:47:54.633Z,73.54
2023-05-23T19:49:46.922Z,73.60
2023-05-23T19:51:39.795Z,73.37
2023-05-23T19:53:32.348Z,73.92
2023-05-23T19:55:26.560Z,73.74
2023-05-23T19:57:18.753Z,74.06
2023-05-23T19:59:10.624Z,74.04
2023-05-23T20:01:03.481Z,74.15
2023-05-23T20:02:56.961Z,74.25
2023-05-23T20:04:48.705Z,74.23
2023-05-23T20:06:40.807Z,74.42
2023-05-23T20:08:33.542Z,74.57
2023-05-23T20:10:26.264Z,74.59
2023-05-23T20:12:18.773Z,75.21
2023-05-23T20:14:11.192Z,75.54
2023-05-23T20:16:03.632Z,75.42
2023-05-23T20:17:55.051Z,76.00
2023-05-23T20:19:47.883Z,76.19
2023-05-23T20:21:39.644Z,76.37
2023-05-23T20:23:32.463Z,76.40
2023-05-23T20:25:28.420Z,76.43
2023-05-23T20:27:20.213Z,76.49
2023-05-23T20:29:12.298Z,76.73
2023-05-23T20:31:03.784Z,76.75
2023-05-23T20:32:55.718Z,76.87
2023-05-23T20:34:47.471Z,77.17
2023-05-23T20:36:39.240Z,77.24
2023-05-23T20:38:31.464Z,77.34
2023-05-23T20:40:23.386Z,77.35
2023-05-23T20:42:15.502Z,77.42
2023-05-23T20:44:11.830Z,77.54
2023-05-23T20:46:07.308Z,77.84
2023-05-23T20:47:59.747Z,78.16
2023-05-23T20:49:51.362Z,78.34
2023-05-23T20:51:43.487Z,78.67
2023-05-23T20:53:35.495Z,78.54
2023-05-23T20:55:29.169Z,78.55
2023-05-23T20:57:22.198Z,78.79
2023-05-23T20:59:13.413Z,78.70
2023-05-23T21:01:05.102Z,79.23
2023-05-23T21:02:57.075Z,79.08
2023-05-23T21:04:48.791Z,79.45
2023-05-23T21:06:40.653Z,79.18
2023-05-23T21:08:34.485Z,79.61
2023-05-23T21:10:26.863Z,79.64
2023-05-23T21:12:18.671Z,79.47
2023-05-23T21:14:10.181Z,79.34
2023-05-23T21:16:02.074Z,79.30
2023-05-23T21:17:54.268Z,79.13
2023-05-23T21:19:46.368Z,79.16
2023-05-23T21:21:38.010Z,79.08
2023-05-23T21:23:29.204Z,79.25
2023-05-23T21:25:21.428Z,79.42
2023-05-23T21:27:12.738Z,79.02
2023-05-23T21:29:04.372Z,79.17
2023-05-23T21:30:56.254Z,79.39
2023-05-23T21:32:48.242Z,79.54
2023-05-23T21:34:40.233Z,79.18
2023-05-23T21:36:31.826Z,79.20
2023-05-23T21:38:25.074Z,79.33
2023-05-23T21:40:17.138Z,79.51
2023-05-23T21:42:08.720Z,79.82
2023-05-23T21:44:00.150Z,79.97
2023-05-23T21:45:51.691Z,80.24
2023-05-23T21:47:43.559Z,80.15
2023-05-23T21:49:35.908Z,80.07
2023-05-23T21:51:27.384Z,80.13
2023-05-23T21:53:18.951Z,80.22
2023-05-23T21:55:10.608Z,80.32
2023-05-23T21:57:01.910Z,80.64
2023-05-23T21:58:53.564Z,80.39
2023-05-23T22:00:45.740Z,80.48
2023-05-23T22:02:37.630Z,80.44
2023-05-23T22:04:29.427Z,80.38
2023-05-23T22:06:21.233Z,80.21
2023-05-23T22:08:12.750Z,80.56
2023-05-23T22:10:04.954Z,80.46
2023-05-23T22:11:56.775Z,80.42
2023-05-23T22:13:48.260Z,80.48
2023-05-23T22:15:40.376Z,80.46
2023-05-23T22:17:34.210Z,80.57
2023-05-23T22:19:26.424Z,80.80
2023-05-23T22:21:18.012Z,81.19
2023-05-23T22:23:10.058Z,81.65
2023-05-23T22:25:01.828Z,81.91
2023-05-23T22:26:53.712Z,81.66
2023-05-23T22:28:46.291Z,82.12
2023-05-23T22:30:38.017Z,81.96
2023-05-23T22:32:29.854Z,81.74
2023-05-23T22:34:21.961Z,81.62
2023-05-23T22:36:13.406Z,81.30
2023-05-23T22:38:04.899Z,81.30
2023-05-23T22:39:56.740Z,81.11
2023-05-23T22:41:48.297Z,80.85
2023-05-23T22:43:40.676Z,80.73
2023-05-23T22:45:40.328Z,80.71
2023-05-23T22:47:32.617Z,80.68
2023-05-23T22:49:25.437Z,80.64
2023-05-23T22:51:19.756Z,80.65
2023-05-23T22:53:13.025Z,80.60
2023-05-23T22:55:06.776Z,80.74
2023-05-23T22:56:59.642Z,80.98
2023-05-23T22:58:51.065Z,80.75
2023-05-23T23:00:43.667Z,81.09
2023-05-23T23:02:35.593Z,80.89
2023-05-23T23:04:31.087Z,81.08
2023-05-23T23:06:22.866Z,81.13
2023-05-23T23:08:16.100Z,81.13
2023-05-23T23:10:09.846Z,81.08
2023-05-23T23:12:01.521Z,81.17
2023-05-23T23:13:53.059Z,81.16
2023-05-23T23:15:45.395Z,81.74
2023-05-23T23:17:37.471Z,81.67
2023-05-23T23:19:29.890Z,81.84
2023-05-23T23:21:21.492Z,82.00
2023-05-23T23:23:13.373Z,81.93
2023-05-23T23:25:07.407Z,81.76
2023-05-23T23:26:59.083Z,81.75
2023-05-23T23:28:50.808Z,81.92
2023-05-23T23:30:43.915Z,82.22
2023-05-23T23:32:36.172Z,82.13
2023-05-23T23:34:28.200Z,81.95
2023-05-23T23:36:19.882Z,82.00
2023-05-23T23:38:11.310Z,82.12
2023-05-23T23:40:03.585Z,81.81
2023-05-23T23:41:55.112Z,81.67
2023-05-23T23:43:47.183Z,81.60
2023-05-23T23:45:38.623Z,81.63
2023-05-23T23:47:30.220Z,81.80
2023-05-23T23:49:21.922Z,81.89
2023-05-23T23:51:13.975Z,81.98
2023-05-23T23:53:06.555Z,82.31
2023-05-23T23:54:58.086Z,82.36
2023-05-23T23:56:49.956Z,82.38
2023-05-23T23:58:41.708Z,82.65
